createdAt,value
2023-02-19T00:01:56.118Z,3.67
2023-02-19T00:04:49.587Z,3.68
2023-02-19T00:07:27.860Z,3.69
2023-02-19T00:10:06.597Z,3.70
2023-02-19T00:13:09.450Z,3.71
2023-02-19T00:16:03.630Z,3.72
2023-02-19T00:19:03.108Z,3.71
2023-02-19T00:22:37.261Z,3.70
2023-02-19T00:26:18.221Z,3.68
2023-02-19T00:29:36.128Z,3.67
2023-02-19T00:36:12.556Z,3.62
2023-02-19T00:39:26.107Z,3.59
2023-02-19T00:43:00.647Z,3.56
2023-02-19T00:46:26.491Z,3.55
2023-02-19T00:50:09.011Z,3.54
2023-02-19T00:53:05.975Z,3.53
2023-02-19T00:56:08.986Z,3.53
2023-02-19T00:59:14.128Z,3.53
2023-02-19T01:02:50.999Z,3.52
2023-02-19T01:06:35.851Z,3.50
2023-02-19T01:09:35.129Z,3.50
2023-02-19T01:12:39.101Z,3.48
2023-02-19T01:15:59.135Z,3.48
2023-02-19T01:19:10.032Z,3.47
2023-02-19T01:22:40.449Z,3.47
2023-02-19T01:25:54.047Z,3.48
2023-02-19T01:29:01.639Z,3.48
2023-02-19T01:32:34.223Z,3.49
2023-02-19T01:39:14.050Z,3.47
2023-02-19T01:42:06.170Z,3.47
2023-02-19T01:44:51.619Z,3.46
2023-02-19T01:48:00.929Z,3.45
2023-02-19T01:50:57.135Z,3.45
2023-02-19T01:53:54.628Z,3.44
2023-02-19T01:56:32.088Z,3.44
2023-02-19T01:59:28.238Z,3.41
2023-02-19T02:02:42.598Z,3.39
2023-02-19T02:06:08.542Z,3.37
2023-02-19T02:09:16.331Z,3.36
2023-02-19T02:13:00.408Z,3.34
2023-02-19T02:16:22.635Z,3.33
2023-02-19T02:19:34.097Z,3.32
2023-02-19T02:22:30.928Z,3.31
2023-02-19T02:25:28.837Z,3.29
2023-02-19T02:28:43.457Z,3.30
2023-02-19T02:32:05.159Z,3.30
2023-02-19T02:35:20.795Z,3.30
2023-02-19T02:38:12.369Z,3.30
2023-02-19T02:40:52.982Z,3.27
2023-02-19T02:43:54.772Z,3.27
2023-02-19T02:47:03.059Z,3.26
2023-02-19T02:50:03.526Z,3.25
2023-02-19T02:53:07.804Z,3.22
2023-02-19T02:56:03.095Z,3.21
2023-02-19T02:58:44.036Z,3.18
2023-02-19T03:02:14.822Z,3.17
2023-02-19T03:05:32.046Z,3.17
2023-02-19T03:08:19.013Z,3.15
2023-02-19T03:11:42.546Z,3.15
2023-02-19T03:15:18.094Z,3.12
2023-02-19T03:18:21.823Z,3.13
2023-02-19T03:24:28.031Z,3.10
2023-02-19T03:27:06.406Z,3.10
2023-02-19T03:29:46.453Z,3.12
2023-02-19T03:32:35.029Z,3.12
2023-02-19T03:35:32.505Z,3.13
2023-02-19T03:38:13.058Z,3.11
2023-02-19T03:41:22.425Z,3.09
2023-02-19T03:44:24.307Z,3.08
2023-02-19T03:47:31.874Z,3.06
2023-02-19T03:50:28.905Z,3.00
2023-02-19T03:53:48.297Z,2.98
2023-02-19T03:56:21.872Z,2.94
2023-02-19T03:58:56.300Z,2.91
2023-02-19T04:02:00.981Z,2.93
2023-02-19T04:04:45.666Z,2.91
2023-02-19T04:07:32.643Z,2.90
2023-02-19T04:10:52.487Z,2.92
2023-02-19T04:13:55.211Z,2.91
2023-02-19T04:16:30.677Z,2.90
2023-02-19T04:19:34.164Z,2.88
2023-02-19T04:22:16.608Z,2.87
2023-02-19T04:25:11.480Z,2.83
2023-02-19T04:28:05.986Z,2.79
2023-02-19T04:31:21.725Z,2.78
2023-02-19T04:33:58.214Z,2.75
2023-02-19T04:36:30.448Z,2.73
2023-02-19T04:39:15.160Z,2.68
2023-02-19T04:42:19.248Z,2.65
2023-02-19T04:45:08.206Z,2.64
2023-02-19T04:47:44.845Z,2.58
2023-02-19T04:50:51.297Z,2.55
2023-02-19T04:54:06.202Z,2.54
2023-02-19T04:57:27.504Z,2.51
2023-02-19T05:00:00.809Z,2.45
2023-02-19T05:02:59.013Z,2.44
2023-02-19T05:06:41.225Z,2.38
2023-02-19T05:09:24.086Z,2.33
2023-02-19T05:11:59.757Z,2.32
2023-02-19T05:14:34.473Z,2.29
2023-02-19T05:17:06.656Z,2.25
2023-02-19T05:19:38.239Z,2.21
2023-02-19T05:22:09.020Z,2.20
2023-02-19T05:24:51.239Z,2.19
2023-02-19T05:27:33.197Z,2.21
2023-02-19T05:30:17.243Z,2.21
2023-02-19T05:33:06.775Z,2.19
2023-02-19T05:36:08.350Z,2.13
2023-02-19T05:39:07.684Z,2.12
2023-02-19T05:41:37.915Z,2.11
2023-02-19T05:44:11.869Z,2.08
2023-02-19T05:46:43.385Z,2.04
2023-02-19T05:49:16.938Z,2.01
2023-02-19T05:52:02.219Z,1.96
2023-02-19T05:54:47.101Z,1.93
2023-02-19T05:57:41.382Z,1.92
2023-02-19T06:00:27.939Z,1.92
2023-02-19T06:03:14.314Z,1.86
2023-02-19T06:05:53.820Z,1.80
2023-02-19T06:08:40.424Z,1.77
2023-02-19T06:11:15.011Z,1.76
2023-02-19T06:14:09.267Z,1.75
2023-02-19T06:16:46.307Z,1.72
2023-02-19T06:19:21.941Z,1.70
2023-02-19T06:21:54.944Z,1.70
2023-02-19T06:24:30.002Z,1.69
2023-02-19T06:27:10.165Z,1.68
2023-02-19T06:30:19.690Z,1.67
2023-02-19T06:32:55.178Z,1.64
2023-02-19T06:35:46.899Z,1.63
2023-02-19T06:38:16.371Z,1.57
2023-02-19T06:40:54.189Z,1.53
2023-02-19T06:43:49.540Z,1.47
2023-02-19T06:46:18.970Z,1.45
2023-02-19T06:48:52.284Z,1.49
2023-02-19T06:51:29.974Z,1.52
2023-02-19T06:54:22.599Z,1.51
2023-02-19T06:56:59.237Z,1.44
2023-02-19T06:59:46.145Z,1.44
2023-02-19T07:02:16.704Z,1.48
2023-02-19T07:04:52.236Z,1.51
2023-02-19T07:07:20.816Z,1.42
2023-02-19T07:09:50.025Z,1.39
2023-02-19T07:12:18.853Z,1.37
2023-02-19T07:14:48.611Z,1.36
2023-02-19T07:17:20.979Z,1.32
2023-02-19T07:20:03.668Z,1.34
2023-02-19T07:22:35.395Z,1.32
2023-02-19T07:28:11.054Z,1.24
2023-02-19T07:30:44.498Z,1.27
2023-02-19T07:33:16.217Z,1.29
2023-02-19T07:35:53.446Z,1.23
2023-02-19T07:38:28.770Z,1.18
2023-02-19T07:41:10.228Z,1.18
2023-02-19T07:43:48.945Z,1.20
2023-02-19T07:46:30.285Z,1.20
2023-02-19T07:49:04.884Z,1.23
2023-02-19T07:52:00.514Z,1.31
2023-02-19T07:54:51.116Z,1.41
2023-02-19T07:57:22.352Z,1.38
2023-02-19T07:59:59.249Z,1.36
2023-02-19T08:02:48.301Z,1.36
2023-02-19T08:05:24.584Z,1.41
2023-02-19T08:07:55.693Z,1.47
2023-02-19T08:10:49.970Z,1.49
2023-02-19T08:13:28.324Z,1.51
2023-02-19T08:16:47.384Z,1.40
2023-02-19T08:19:26.230Z,1.38
2023-02-19T08:22:02.109Z,1.36
2023-02-19T08:24:34.191Z,1.38
2023-02-19T08:27:08.302Z,1.41
2023-02-19T08:29:44.061Z,1.45
2023-02-19T08:32:22.950Z,1.46
2023-02-19T08:34:53.859Z,1.45
2023-02-19T08:37:33.720Z,1.48
2023-02-19T08:40:07.994Z,1.48
2023-02-19T08:42:48.353Z,1.46
2023-02-19T08:45:24.397Z,1.49
2023-02-19T08:48:03.542Z,1.57
2023-02-19T08:50:34.700Z,1.59
2023-02-19T08:53:06.984Z,1.61
2023-02-19T08:55:50.376Z,1.70
2023-02-19T08:58:28.096Z,1.71
2023-02-19T09:01:26.324Z,1.70
2023-02-19T09:04:00.702Z,1.76
2023-02-19T09:06:35.028Z,1.84
2023-02-19T09:09:10.552Z,1.78
2023-02-19T09:11:54.208Z,1.72
2023-02-19T09:14:33.930Z,1.56
2023-02-19T09:17:30.397Z,1.55
2023-02-19T09:20:04.616Z,1.70
2023-02-19T09:22:37.420Z,1.83
2023-02-19T09:25:06.191Z,1.88
2023-02-19T09:28:00.006Z,1.89
2023-02-19T09:30:28.442Z,1.76
2023-02-19T09:32:57.015Z,1.82
2023-02-19T09:35:28.117Z,1.91
2023-02-19T09:38:00.537Z,1.97
2023-02-19T09:40:30.853Z,1.99
2023-02-19T09:43:02.632Z,2.02
2023-02-19T09:45:35.974Z,2.06
2023-02-19T09:48:25.607Z,2.03
2023-02-19T09:51:12.702Z,2.05
2023-02-19T09:54:00.940Z,2.09
2023-02-19T09:56:40.538Z,2.14
2023-02-19T09:59:41.693Z,2.16
2023-02-19T10:02:39.511Z,2.22
2023-02-19T10:05:19.242Z,2.24
2023-02-19T10:07:53.063Z,2.36
2023-02-19T10:10:33.012Z,2.39
2023-02-19T10:13:36.810Z,2.43
2023-02-19T10:16:19.561Z,2.56
2023-02-19T10:18:51.435Z,2.65
2023-02-19T10:21:35.831Z,2.76
2023-02-19T10:24:08.664Z,2.74
2023-02-19T10:26:43.781Z,2.70
2023-02-19T10:29:45.072Z,2.72
2023-02-19T10:32:27.641Z,2.67
2023-02-19T10:35:15.419Z,2.67
2023-02-19T10:37:54.878Z,2.67
2023-02-19T10:40:44.472Z,2.65
2023-02-19T10:43:33.556Z,2.62
2023-02-19T10:46:41.912Z,2.60
2023-02-19T10:49:41.010Z,2.65
2023-02-19T10:52:40.424Z,2.59
2023-02-19T10:55:21.615Z,2.56
2023-02-19T10:58:47.169Z,2.58
2023-02-19T11:01:30.173Z,2.66
2023-02-19T11:04:26.225Z,2.81
2023-02-19T11:07:01.931Z,2.91
2023-02-19T11:09:45.689Z,2.97
2023-02-19T11:12:28.737Z,3.05
2023-02-19T11:15:25.524Z,3.25
2023-02-19T11:18:20.671Z,3.38
2023-02-19T11:20:56.425Z,3.38
2023-02-19T11:23:43.943Z,3.35
2023-02-19T11:26:38.341Z,3.36
2023-02-19T11:29:25.056Z,3.31
2023-02-19T11:32:51.363Z,3.42
2023-02-19T11:36:05.169Z,3.75
2023-02-19T11:39:21.031Z,4.00
2023-02-19T11:42:01.978Z,3.86
2023-02-19T11:45:19.464Z,3.80
2023-02-19T11:48:19.481Z,3.86
2023-02-19T11:51:24.400Z,3.88
2023-02-19T11:54:16.272Z,4.15
2023-02-19T11:57:09.401Z,4.30
2023-02-19T12:00:34.587Z,4.46
2023-02-19T12:03:54.680Z,4.74
2023-02-19T12:07:22.154Z,4.43
2023-02-19T12:10:16.446Z,4.05
2023-02-19T12:13:21.542Z,3.90
2023-02-19T12:16:12.201Z,3.86
2023-02-19T12:19:26.315Z,3.90
2023-02-19T12:22:34.596Z,3.87
2023-02-19T12:26:11.774Z,3.87
2023-02-19T12:29:18.655Z,4.14
2023-02-19T12:32:29.589Z,4.18
2023-02-19T12:35:39.028Z,4.15
2023-02-19T12:38:38.664Z,3.95
2023-02-19T12:41:36.585Z,3.74
2023-02-19T12:44:38.165Z,3.83
2023-02-19T12:47:37.651Z,4.20
2023-02-19T12:50:37.791Z,4.49
2023-02-19T12:53:21.160Z,4.26
2023-02-19T12:55:51.944Z,4.14
2023-02-19T12:58:31.590Z,4.39
2023-02-19T13:01:00.905Z,4.87
2023-02-19T13:03:35.536Z,5.36
2023-02-19T13:06:48.684Z,5.62
2023-02-19T13:10:00.627Z,5.52
2023-02-19T13:13:01.920Z,4.92
2023-02-19T13:15:42.110Z,4.59
2023-02-19T13:18:20.001Z,4.34
2023-02-19T13:21:48.387Z,4.07
2023-02-19T13:24:33.844Z,3.92
2023-02-19T13:28:18.996Z,4.14
2023-02-19T13:31:26.740Z,4.06
2023-02-19T13:34:55.104Z,3.81
2023-02-19T13:37:24.561Z,3.62
2023-02-19T13:40:40.089Z,3.68
2023-02-19T13:43:36.764Z,4.01
2023-02-19T13:46:16.877Z,4.42
2023-02-19T13:48:48.692Z,4.30
2023-02-19T13:51:22.012Z,4.10
2023-02-19T13:54:44.865Z,4.01
2023-02-19T13:57:28.375Z,3.90
2023-02-19T13:59:58.311Z,3.81
2023-02-19T14:02:38.147Z,3.76
2023-02-19T14:05:11.929Z,3.78
2023-02-19T14:07:53.191Z,4.34
2023-02-19T14:11:00.954Z,4.80
2023-02-19T14:13:48.072Z,5.42
2023-02-19T14:16:50.693Z,5.93
2023-02-19T14:19:41.729Z,5.69
2023-02-19T14:23:09.817Z,5.69
2023-02-19T14:25:55.655Z,5.62
2023-02-19T14:28:46.857Z,5.74
2023-02-19T14:31:34.402Z,5.81
2023-02-19T14:34:27.167Z,5.58
2023-02-19T14:37:02.551Z,5.31
2023-02-19T14:39:40.845Z,5.25
2023-02-19T14:42:23.192Z,5.14
2023-02-19T14:44:57.524Z,5.04
2023-02-19T14:47:35.160Z,4.99
2023-02-19T14:50:12.550Z,4.97
2023-02-19T14:52:54.612Z,5.09
2023-02-19T14:55:29.815Z,5.31
2023-02-19T14:58:15.996Z,5.54
2023-02-19T15:00:54.799Z,5.58
2023-02-19T15:03:29.395Z,5.67
2023-02-19T15:06:06.496Z,5.78
2023-02-19T15:08:46.153Z,5.11
2023-02-19T15:11:33.035Z,4.52
2023-02-19T15:14:08.473Z,4.81
2023-02-19T15:16:37.938Z,5.42
2023-02-19T15:19:20.061Z,5.66
2023-02-19T15:21:52.335Z,5.66
2023-02-19T15:24:21.145Z,5.53
2023-02-19T15:26:55.169Z,5.27
2023-02-19T15:29:27.822Z,5.00
2023-02-19T15:32:00.096Z,5.05
2023-02-19T15:34:31.256Z,5.17
2023-02-19T15:37:06.934Z,5.16
2023-02-19T15:39:45.132Z,4.78
2023-02-19T15:42:49.258Z,4.47
2023-02-19T15:45:36.056Z,4.30
2023-02-19T15:48:25.303Z,4.13
2023-02-19T15:51:14.203Z,3.92
2023-02-19T15:54:07.071Z,3.73
2023-02-19T15:56:44.383Z,3.64
2023-02-19T15:59:50.254Z,3.57
2023-02-19T16:02:36.354Z,3.56
2023-02-19T16:05:54.480Z,3.52
2023-02-19T16:08:30.978Z,3.50
2023-02-19T16:11:32.835Z,3.49
2023-02-19T16:14:49.524Z,3.44
2023-02-19T16:18:18.529Z,3.40
2023-02-19T16:21:33.704Z,3.41
2023-02-19T16:24:43.580Z,3.43
2023-02-19T16:27:50.308Z,3.41
2023-02-19T16:31:05.625Z,3.39
2023-02-19T16:34:47.073Z,3.36
2023-02-19T16:37:40.897Z,3.33
2023-02-19T16:41:19.783Z,3.29
2023-02-19T16:44:35.210Z,3.32
2023-02-19T16:47:34.606Z,3.35
2023-02-19T16:50:18.888Z,3.29
2023-02-19T16:52:58.010Z,3.19
2023-02-19T16:55:31.488Z,3.07
2023-02-19T16:58:02.644Z,2.97
2023-02-19T17:00:36.152Z,2.89
2023-02-19T17:03:23.148Z,2.84
2023-02-19T17:06:12.723Z,2.82
2023-02-19T17:09:07.974Z,2.82
2023-02-19T17:11:42.945Z,2.81
2023-02-19T17:14:12.216Z,2.77
2023-02-19T17:16:48.016Z,2.69
2023-02-19T17:19:18.934Z,2.60
2023-02-19T17:22:12.057Z,2.52
2023-02-19T17:24:52.169Z,2.45
2023-02-19T17:27:20.910Z,2.37
2023-02-19T17:29:49.273Z,2.30
2023-02-19T17:32:23.111Z,2.26
2023-02-19T17:35:09.206Z,2.23
2023-02-19T17:38:11.889Z,2.19
2023-02-19T17:40:50.848Z,2.22
2023-02-19T17:44:07.570Z,2.18
2023-02-19T17:46:55.767Z,2.08
2023-02-19T17:49:36.799Z,2.00
2023-02-19T17:52:30.987Z,1.96
2023-02-19T17:55:04.544Z,1.93
2023-02-19T17:57:37.091Z,1.92
2023-02-19T18:00:16.772Z,1.90
2023-02-19T18:02:45.606Z,1.87
2023-02-19T18:05:23.913Z,1.87
2023-02-19T18:07:56.087Z,1.85
2023-02-19T18:10:25.525Z,1.83
2023-02-19T18:12:54.329Z,1.79
2023-02-19T18:15:28.273Z,1.78
2023-02-19T18:18:36.377Z,1.74
2023-02-19T18:21:28.679Z,1.73
2023-02-19T18:23:58.011Z,1.71
2023-02-19T18:26:31.244Z,1.65
2023-02-19T18:29:01.057Z,1.61
2023-02-19T18:31:34.708Z,1.57
2023-02-19T18:34:31.677Z,1.52
2023-02-19T18:37:04.076Z,1.48
2023-02-19T18:39:33.690Z,1.44
2023-02-19T18:42:31.189Z,1.43
2023-02-19T18:45:13.100Z,1.40
2023-02-19T18:47:42.647Z,1.39
2023-02-19T18:50:27.484Z,1.36
2023-02-19T18:53:16.583Z,1.33
2023-02-19T18:55:51.878Z,1.34
2023-02-19T18:58:29.672Z,1.33
2023-02-19T19:01:04.743Z,1.30
2023-02-19T19:03:41.909Z,1.26
2023-02-19T19:06:16.648Z,1.23
2023-02-19T19:08:53.971Z,1.19
2023-02-19T19:11:25.957Z,1.17
2023-02-19T19:14:11.173Z,1.17
2023-02-19T19:16:53.080Z,1.22
2023-02-19T19:19:34.684Z,1.23
2023-02-19T19:22:03.543Z,1.20
2023-02-19T19:24:47.982Z,1.15
2023-02-19T19:27:45.320Z,1.09
2023-02-19T19:30:38.744Z,1.07
2023-02-19T19:33:11.992Z,1.05
2023-02-19T19:35:53.120Z,1.05
2023-02-19T19:38:26.528Z,1.05
2023-02-19T19:41:06.660Z,1.05
2023-02-19T19:43:41.982Z,1.03
2023-02-19T19:46:19.513Z,1.03
2023-02-19T19:48:50.533Z,1.03
2023-02-19T19:51:41.582Z,1.02
2023-02-19T19:54:32.077Z,1.01
2023-02-19T19:57:09.197Z,1.03
2023-02-19T19:59:57.641Z,1.05
2023-02-19T20:02:41.778Z,1.06
2023-02-19T20:05:38.178Z,1.12
2023-02-19T20:08:12.523Z,1.07
2023-02-19T20:11:04.146Z,1.02
2023-02-19T20:13:39.025Z,0.99
2023-02-19T20:16:15.215Z,0.98
2023-02-19T20:19:08.811Z,0.95
2023-02-19T20:21:59.570Z,0.93
2023-02-19T20:24:35.256Z,0.94
2023-02-19T20:27:10.771Z,0.92
2023-02-19T20:29:45.428Z,0.97
2023-02-19T20:32:18.877Z,1.05
2023-02-19T20:34:53.682Z,1.07
2023-02-19T20:37:34.523Z,1.05
2023-02-19T20:40:08.589Z,1.04
2023-02-19T20:42:46.861Z,1.05
2023-02-19T20:45:33.863Z,1.03
2023-02-19T20:48:27.180Z,1.03
2023-02-19T20:51:01.297Z,1.06
2023-02-19T20:53:43.792Z,1.09
2023-02-19T20:56:29.958Z,1.13
2023-02-19T20:59:05.249Z,1.22
2023-02-19T21:01:39.710Z,1.28
2023-02-19T21:04:19.766Z,1.24
2023-02-19T21:07:10.502Z,1.18
2023-02-19T21:10:15.891Z,1.13
2023-02-19T21:12:49.708Z,1.16
2023-02-19T21:15:49.387Z,1.17
2023-02-19T21:18:23.545Z,1.16
2023-02-19T21:20:52.486Z,1.16
2023-02-19T21:23:51.820Z,1.16
2023-02-19T21:26:45.888Z,1.14
2023-02-19T21:29:27.921Z,1.11
2023-02-19T21:32:04.170Z,1.09
2023-02-19T21:34:48.279Z,1.08
2023-02-19T21:37:30.880Z,1.08
2023-02-19T21:40:10.331Z,1.11
2023-02-19T21:43:00.718Z,1.13
2023-02-19T21:45:56.688Z,1.17
2023-02-19T21:48:38.699Z,1.14
2023-02-19T21:51:39.764Z,1.12
2023-02-19T21:54:55.035Z,1.12
2023-02-19T21:57:41.629Z,1.12
2023-02-19T22:00:17.173Z,1.13
2023-02-19T22:02:58.815Z,1.14
2023-02-19T22:05:38.603Z,1.14
2023-02-19T22:08:29.016Z,1.16
2023-02-19T22:11:26.430Z,1.19
2023-02-19T22:14:10.486Z,1.16
2023-02-19T22:17:00.589Z,1.15
2023-02-19T22:19:31.893Z,1.18
2023-02-19T22:22:04.833Z,1.15
2023-02-19T22:24:33.410Z,1.19
2023-02-19T22:27:22.962Z,1.23
2023-02-19T22:30:22.319Z,1.30
2023-02-19T22:32:52.247Z,1.34
2023-02-19T22:35:21.911Z,1.34
2023-02-19T22:37:51.239Z,1.33
2023-02-19T22:40:37.376Z,1.35
2023-02-19T22:43:09.425Z,1.44
2023-02-19T22:45:43.882Z,1.51
2023-02-19T22:48:29.415Z,1.56
2023-02-19T22:51:21.467Z,1.58
2023-02-19T22:54:04.324Z,1.56
2023-02-19T22:56:56.738Z,1.54
2023-02-19T22:59:36.804Z,1.54
2023-02-19T23:02:14.630Z,1.58
2023-02-19T23:06:23.334Z,1.60
2023-02-19T23:10:43.717Z,1.65
2023-02-19T23:14:20.079Z,1.66
2023-02-19T23:18:10.365Z,1.62
2023-02-19T23:22:03.916Z,1.58
2023-02-19T23:28:53.654Z,1.50
2023-02-19T23:31:51.278Z,1.42
2023-02-19T23:35:11.303Z,1.26
2023-02-19T23:39:15.115Z,1.12
2023-02-19T23:42:24.380Z,0.99
2023-02-19T23:45:10.980Z,0.94
2023-02-19T23:48:35.834Z,0.90
2023-02-19T23:51:19.193Z,0.86
2023-02-19T23:54:06.223Z,0.83
2023-02-19T23:57:33.377Z,0.80
